< < Back
Terminal Aerodrome Forecast


Current Version              Previous Versions:   1  2  3  4  5  6  7  8  9  

Terminal Aerodrome Forecast

048
FTUS42 KGSP 301421 AAC
TAFGSP
TAF AMD
KGSP 301421Z 3014/3112 16003KT P6SM SCT018 SCT250
      TEMPO 3014/3016 BKN018
     FM301900 17008KT P6SM SCT040
     FM310900 00000KT P6SM BKN030
     FM311100 00000KT 6SM BR BKN016=



Latest METAR

691
SAUS70 KWBC 301600 RRG
MTRGSP
METAR KGSP 301553Z 18004KT 10SM BKN029 26/18 A3021 RMK AO2 SLP218
T02610183


USA.gov is the U.S. government's official web portal to all federal, state and local government web resources and services.